createdAt,value
2017-10-23T00:01:15.568Z,88.40
2017-10-23T00:03:43.096Z,88.10
2017-10-23T00:06:10.680Z,88.10
2017-10-23T00:08:38.216Z,87.50
2017-10-23T00:11:05.735Z,87.60
2017-10-23T00:13:33.295Z,87.90
2017-10-23T00:16:00.820Z,87.70
2017-10-23T00:18:28.342Z,87.60
2017-10-23T00:20:55.896Z,87.30
2017-10-23T00:23:23.423Z,87.70
2017-10-23T00:25:52.123Z,87.10
2017-10-23T00:28:19.715Z,87.10
2017-10-23T00:30:47.243Z,86.80
2017-10-23T00:33:16.403Z,87.00
2017-10-23T00:35:43.967Z,86.80
2017-10-23T00:38:11.495Z,86.90
2017-10-23T00:40:39.020Z,86.90
2017-10-23T00:43:06.579Z,86.80
2017-10-23T00:45:34.882Z,86.80
2017-10-23T00:48:02.423Z,86.70
2017-10-23T00:50:30.760Z,86.40
2017-10-23T00:52:58.464Z,86.30
2017-10-23T00:55:25.991Z,86.60
2017-10-23T00:57:53.553Z,86.70
2017-10-23T01:00:21.079Z,86.80
2017-10-23T01:02:48.602Z,86.60
2017-10-23T01:05:16.548Z,86.90
2017-10-23T01:07:44.079Z,87.10
2017-10-23T01:10:11.608Z,86.50
2017-10-23T01:12:39.191Z,86.80
2017-10-23T01:15:06.720Z,86.70
2017-10-23T01:17:35.008Z,86.40
2017-10-23T01:20:02.556Z,86.40
2017-10-23T01:22:30.088Z,86.50
2017-10-23T01:24:57.620Z,86.80
2017-10-23T01:27:25.184Z,87.20
2017-10-23T01:29:52.710Z,87.30
2017-10-23T01:32:20.230Z,88.00
2017-10-23T01:34:47.837Z,88.70
2017-10-23T01:37:16.452Z,88.20
2017-10-23T01:39:43.988Z,88.80
2017-10-23T01:42:11.543Z,88.70
2017-10-23T01:44:39.073Z,88.60
2017-10-23T01:47:06.599Z,88.70
2017-10-23T01:49:34.155Z,87.60
2017-10-23T01:52:01.677Z,87.70
2017-10-23T01:54:30.427Z,87.80
2017-10-23T01:56:58.000Z,87.50
2017-10-23T01:59:26.291Z,87.10
2017-10-23T02:01:53.823Z,87.10
2017-10-23T02:04:22.145Z,87.30
2017-10-23T02:06:49.671Z,87.20
2017-10-23T02:09:17.967Z,86.50
2017-10-23T02:11:45.524Z,86.50
2017-10-23T02:14:23.546Z,86.20
2017-10-23T02:19:31.153Z,86.60
2017-10-23T02:21:58.679Z,86.50
2017-10-23T02:24:26.971Z,86.10
2017-10-23T02:26:54.531Z,86.10
2017-10-23T02:29:22.061Z,86.40
2017-10-23T02:31:49.583Z,86.40
2017-10-23T02:34:17.129Z,85.80
2017-10-23T02:36:44.662Z,86.10
2017-10-23T02:39:12.204Z,85.70
2017-10-23T02:41:39.812Z,86.20
2017-10-23T02:44:07.337Z,86.10
2017-10-23T02:46:35.627Z,86.40
2017-10-23T02:49:03.178Z,86.40
2017-10-23T02:51:31.588Z,86.70
2017-10-23T02:53:59.118Z,86.70
2017-10-23T02:56:26.912Z,86.80
2017-10-23T02:58:54.447Z,86.80
2017-10-23T03:01:21.971Z,85.80
2017-10-23T03:03:49.929Z,86.30
2017-10-23T03:06:17.458Z,86.10
2017-10-23T03:08:44.984Z,86.00
2017-10-23T03:11:14.220Z,86.60
2017-10-23T03:13:41.756Z,86.00
2017-10-23T03:16:09.292Z,86.30
2017-10-23T03:18:36.867Z,85.50
2017-10-23T03:21:05.155Z,86.10
2017-10-23T03:23:32.688Z,86.10
2017-10-23T03:26:01.040Z,86.60
2017-10-23T03:28:28.571Z,86.40
2017-10-23T03:30:56.109Z,86.50
2017-10-23T03:33:23.664Z,86.40
2017-10-23T03:35:51.199Z,86.20
2017-10-23T03:38:18.732Z,86.60
2017-10-23T03:40:46.292Z,86.80
2017-10-23T03:43:15.483Z,86.70
2017-10-23T03:45:43.064Z,86.70
2017-10-23T03:48:10.643Z,87.30
2017-10-23T03:50:38.936Z,86.90
2017-10-23T03:53:06.472Z,87.00
2017-10-23T03:55:34.015Z,86.50
2017-10-23T03:58:01.550Z,86.70
2017-10-23T04:00:29.079Z,86.50
2017-10-23T04:02:56.645Z,87.20
2017-10-23T04:05:24.171Z,87.50
2017-10-23T04:07:51.697Z,88.20
2017-10-23T04:10:19.264Z,87.40
2017-10-23T04:12:46.794Z,87.50
2017-10-23T04:15:14.691Z,87.20
2017-10-23T04:26:37.497Z,87.30
2017-10-23T04:29:05.015Z,86.80
2017-10-23T04:31:33.324Z,86.70
2017-10-23T04:34:00.872Z,86.70
2017-10-23T04:36:28.391Z,86.40
2017-10-23T04:38:55.924Z,86.10
2017-10-23T04:41:23.475Z,85.90
2017-10-23T04:43:51.005Z,85.00
2017-10-23T04:46:18.544Z,85.20
2017-10-23T04:48:46.887Z,85.50
2017-10-23T04:51:15.546Z,85.50
2017-10-23T04:53:43.079Z,85.60
2017-10-23T04:56:10.640Z,85.00
2017-10-23T04:58:38.679Z,85.60
2017-10-23T05:01:06.976Z,85.40
2017-10-23T05:03:34.535Z,85.30
2017-10-23T05:06:02.097Z,84.80
2017-10-23T05:08:29.618Z,85.20
2017-10-23T05:10:57.204Z,85.40
2017-10-23T05:13:24.727Z,84.70
2017-10-23T05:15:52.264Z,84.70
2017-10-23T05:18:19.847Z,84.50
2017-10-23T05:20:47.378Z,84.70
2017-10-23T05:23:16.379Z,84.80
2017-10-23T05:25:43.960Z,84.60
2017-10-23T05:28:11.489Z,85.00
2017-10-23T05:30:39.015Z,84.80
2017-10-23T05:33:06.599Z,84.90
2017-10-23T05:35:34.135Z,85.10
2017-10-23T05:38:01.660Z,84.60
2017-10-23T05:40:29.223Z,84.10
2017-10-23T05:42:56.739Z,84.80
2017-10-23T05:45:24.266Z,84.60
2017-10-23T05:47:51.838Z,84.80
2017-10-23T05:50:19.368Z,84.50
2017-10-23T05:52:46.891Z,84.10
2017-10-23T05:55:15.881Z,84.50
2017-10-23T05:57:43.416Z,84.60
2017-10-23T06:00:11.184Z,83.80
2017-10-23T06:02:38.740Z,84.00
2017-10-23T06:05:06.264Z,83.60
2017-10-23T06:07:33.788Z,83.50
2017-10-23T06:10:01.343Z,83.90
2017-10-23T06:12:28.862Z,83.90
2017-10-23T06:14:57.178Z,83.40
2017-10-23T06:17:24.764Z,83.40
2017-10-23T06:19:52.299Z,82.90
2017-10-23T06:22:21.203Z,83.10
2017-10-23T06:24:48.764Z,82.90
2017-10-23T06:27:16.436Z,83.20
2017-10-23T06:29:43.968Z,83.20
2017-10-23T06:32:11.526Z,83.10
2017-10-23T06:34:39.060Z,83.00
2017-10-23T06:37:06.587Z,82.50
2017-10-23T06:39:34.162Z,82.50
2017-10-23T06:42:01.708Z,82.20
2017-10-23T06:44:29.228Z,82.00
2017-10-23T06:46:56.783Z,81.80
2017-10-23T06:49:24.319Z,82.00
2017-10-23T06:51:51.849Z,82.00
2017-10-23T06:54:19.406Z,81.50
2017-10-23T06:56:46.940Z,82.00
2017-10-23T06:59:15.527Z,81.70
2017-10-23T07:01:43.396Z,81.20
2017-10-23T07:04:10.934Z,80.80
2017-10-23T07:06:38.460Z,80.50
2017-10-23T07:09:06.038Z,81.00
2017-10-23T07:11:33.570Z,81.50
2017-10-23T07:14:01.091Z,80.50
2017-10-23T07:16:28.634Z,80.60
2017-10-23T07:18:56.160Z,80.40
2017-10-23T07:21:24.460Z,80.90
2017-10-23T07:23:52.191Z,80.70
2017-10-23T07:26:19.719Z,80.20
2017-10-23T07:28:47.243Z,80.20
2017-10-23T07:31:16.484Z,80.20
2017-10-23T07:33:44.013Z,80.20
2017-10-23T07:36:11.539Z,79.30
2017-10-23T07:38:39.080Z,79.60
2017-10-23T07:41:06.611Z,79.80
2017-10-23T07:43:34.170Z,79.80
2017-10-23T07:46:01.735Z,79.90
2017-10-23T07:48:29.266Z,79.80
2017-10-23T07:50:56.796Z,79.30
2017-10-23T07:53:25.120Z,79.50
2017-10-23T07:55:52.651Z,79.50
2017-10-23T07:58:20.191Z,79.40
2017-10-23T08:00:48.503Z,79.30
2017-10-23T08:03:17.108Z,79.30
2017-10-23T08:05:44.640Z,80.20
2017-10-23T08:08:12.225Z,79.50
2017-10-23T08:10:39.751Z,80.20
2017-10-23T08:13:07.289Z,80.20
2017-10-23T08:15:35.604Z,79.50
2017-10-23T08:18:03.128Z,79.50
2017-10-23T08:20:31.419Z,79.90
2017-10-23T08:22:58.971Z,79.90
2017-10-23T08:25:26.496Z,79.40
2017-10-23T08:27:54.038Z,80.00
2017-10-23T08:30:21.619Z,79.50
2017-10-23T08:32:49.143Z,79.60
2017-10-23T08:35:16.667Z,79.60
2017-10-23T08:37:44.995Z,80.00
2017-10-23T08:40:12.604Z,80.00
2017-10-23T08:42:40.911Z,79.90
2017-10-23T08:45:08.474Z,79.90
2017-10-23T08:47:35.997Z,80.10
2017-10-23T08:50:04.284Z,79.00
2017-10-23T08:52:31.875Z,79.00
2017-10-23T08:54:59.417Z,79.00
2017-10-23T08:57:26.947Z,78.00
2017-10-23T08:59:54.539Z,79.00
2017-10-23T09:02:22.072Z,78.20
2017-10-23T09:04:50.759Z,78.00
2017-10-23T09:07:19.079Z,77.30
2017-10-23T09:09:46.620Z,77.20
2017-10-23T09:12:15.543Z,77.10
2017-10-23T09:14:43.119Z,76.10
2017-10-23T09:17:10.636Z,76.40
2017-10-23T09:19:38.164Z,77.00
2017-10-23T09:22:06.492Z,74.40
2017-10-23T09:24:34.022Z,74.20
2017-10-23T09:27:01.561Z,74.80
2017-10-23T09:29:29.888Z,74.40
2017-10-23T09:31:57.424Z,74.40
2017-10-23T09:34:24.956Z,74.60
2017-10-23T09:36:52.536Z,74.60
2017-10-23T09:39:20.067Z,74.20
2017-10-23T09:41:47.608Z,74.00
2017-10-23T09:44:17.283Z,72.50
2017-10-23T09:46:44.829Z,72.50
2017-10-23T09:49:12.360Z,73.90
2017-10-23T09:51:39.912Z,73.00
2017-10-23T09:54:07.448Z,72.10
2017-10-23T09:56:35.026Z,71.70
2017-10-23T09:59:02.623Z,71.80
2017-10-23T10:01:30.152Z,71.50
2017-10-23T10:03:58.452Z,71.00
2017-10-23T10:06:26.643Z,70.40
2017-10-23T10:08:54.175Z,69.90
2017-10-23T10:11:22.487Z,69.50
2017-10-23T10:13:50.059Z,69.40
2017-10-23T10:16:17.587Z,70.20
2017-10-23T10:18:45.118Z,69.40
2017-10-23T10:21:12.719Z,69.80
2017-10-23T10:23:40.260Z,69.80
2017-10-23T10:26:07.801Z,68.50
2017-10-23T10:28:36.147Z,70.50
2017-10-23T10:31:03.676Z,70.50
2017-10-23T10:33:31.203Z,70.10
2017-10-23T10:35:58.754Z,69.80
2017-10-23T10:38:26.296Z,68.50
2017-10-23T10:40:53.835Z,69.50
2017-10-23T10:43:21.808Z,68.10
2017-10-23T10:45:49.339Z,68.20
2017-10-23T10:48:16.867Z,68.60
2017-10-23T10:50:45.183Z,67.60
2017-10-23T10:53:13.635Z,67.60
2017-10-23T10:55:41.247Z,69.50
2017-10-23T10:58:08.796Z,67.70
2017-10-23T11:00:36.332Z,67.40
2017-10-23T11:03:03.880Z,66.50
2017-10-23T11:05:31.468Z,68.10
2017-10-23T11:07:59.151Z,67.60
2017-10-23T11:10:26.675Z,69.10
2017-10-23T11:12:54.236Z,68.90
2017-10-23T11:15:21.776Z,67.80
2017-10-23T11:17:49.506Z,66.60
2017-10-23T11:20:17.080Z,66.50
2017-10-23T11:22:44.613Z,68.10
2017-10-23T11:25:12.195Z,69.10
2017-10-23T11:27:39.779Z,68.40
2017-10-23T11:30:08.084Z,67.40
2017-10-23T11:32:37.667Z,67.30
2017-10-23T11:35:05.228Z,65.70
2017-10-23T11:37:33.535Z,65.20
2017-10-23T11:40:01.066Z,65.10
2017-10-23T11:42:29.400Z,65.70
2017-10-23T11:44:56.934Z,65.70
2017-10-23T11:47:24.459Z,65.30
2017-10-23T11:49:52.041Z,65.80
2017-10-23T11:52:19.575Z,67.00
2017-10-23T11:54:47.100Z,67.50
2017-10-23T11:57:26.640Z,66.70
2017-10-23T12:02:58.135Z,67.00
2017-10-23T12:05:25.670Z,68.80
2017-10-23T12:07:53.204Z,69.40
2017-10-23T12:10:21.187Z,68.50
2017-10-23T12:12:48.727Z,68.20
2017-10-23T12:15:16.541Z,68.20
2017-10-23T12:17:44.097Z,68.60
2017-10-23T12:20:11.626Z,67.60
2017-10-23T12:22:39.228Z,67.40
2017-10-23T12:25:06.780Z,68.60
2017-10-23T12:27:34.312Z,67.90
2017-10-23T12:30:01.839Z,67.00
2017-10-23T12:34:57.894Z,66.30
2017-10-23T12:37:25.443Z,66.20
2017-10-23T12:39:53.018Z,66.60
2017-10-23T12:42:20.562Z,66.20
2017-10-23T12:44:48.570Z,66.10
2017-10-23T12:47:16.476Z,65.20
2017-10-23T12:49:45.476Z,66.70
2017-10-23T12:52:24.563Z,66.10
2017-10-23T13:04:07.127Z,66.00
2017-10-23T13:06:34.656Z,66.40
2017-10-23T13:09:02.226Z,66.00
2017-10-23T13:11:30.111Z,66.00
2017-10-23T13:13:57.639Z,67.30
2017-10-23T13:16:25.172Z,65.40
2017-10-23T13:18:52.724Z,67.10
2017-10-23T13:21:20.266Z,68.10
2017-10-23T13:23:47.799Z,66.80
2017-10-23T13:26:15.518Z,67.50
2017-10-23T13:28:43.816Z,66.40
2017-10-23T13:31:11.938Z,66.40
2017-10-23T13:33:39.598Z,67.90
2017-10-23T13:36:07.132Z,66.70
2017-10-23T13:38:34.671Z,67.00
2017-10-23T13:41:02.235Z,67.70
2017-10-23T13:43:29.770Z,68.60
2017-10-23T13:45:57.487Z,68.50
2017-10-23T13:48:25.061Z,69.10
2017-10-23T13:50:52.600Z,68.10
2017-10-23T13:53:20.390Z,69.10
2017-10-23T13:55:47.983Z,69.50
2017-10-23T13:58:16.427Z,70.40
2017-10-23T14:00:43.956Z,71.50
2017-10-23T14:03:11.516Z,71.80
2017-10-23T14:05:39.058Z,72.20
2017-10-23T14:08:06.612Z,72.50
2017-10-23T14:10:34.931Z,73.00
2017-10-23T14:13:02.596Z,72.90
2017-10-23T14:15:30.128Z,72.40
2017-10-23T14:17:57.728Z,72.60
2017-10-23T14:20:25.465Z,72.60
2017-10-23T14:22:53.000Z,73.40
2017-10-23T14:25:20.572Z,73.00
2017-10-23T14:27:48.100Z,73.40
2017-10-23T14:30:16.444Z,73.30
2017-10-23T14:32:44.068Z,73.50
2017-10-23T14:35:11.668Z,74.00
2017-10-23T14:37:39.203Z,74.90
2017-10-23T14:40:06.796Z,75.60
2017-10-23T14:42:34.327Z,76.30
2017-10-23T14:45:01.864Z,76.00
2017-10-23T14:47:39.769Z,76.20
2017-10-23T14:55:21.131Z,76.70
2017-10-23T14:57:49.762Z,76.50
2017-10-23T15:00:19.020Z,76.80
2017-10-23T15:02:50.507Z,77.10
2017-10-23T15:05:18.162Z,76.90
2017-10-23T15:07:52.232Z,77.10
2017-10-23T15:38:43.901Z,78.10
2017-10-23T15:41:11.524Z,77.10
2017-10-23T15:43:39.945Z,77.10
2017-10-23T15:46:07.624Z,77.20
2017-10-23T15:48:35.373Z,77.60
2017-10-23T15:51:22.080Z,76.40
2017-10-23T15:53:51.007Z,77.20
2017-10-23T15:56:20.328Z,77.10
2017-10-23T15:58:48.216Z,76.90
2017-10-23T16:01:18.371Z,77.10
2017-10-23T16:03:46.857Z,77.00
2017-10-23T16:06:17.225Z,77.20
2017-10-23T16:08:44.863Z,77.10
2017-10-23T16:11:12.489Z,77.10
2017-10-23T16:13:40.299Z,77.50
2017-10-23T16:16:09.333Z,77.60
2017-10-23T16:18:43.479Z,77.50
2017-10-23T16:21:11.102Z,77.40
2017-10-23T16:23:38.689Z,77.30
2017-10-23T16:26:06.778Z,77.30
2017-10-23T16:28:34.781Z,77.80
2017-10-23T16:31:02.394Z,77.50
2017-10-23T16:33:31.388Z,77.60
2017-10-23T16:35:58.927Z,77.60
2017-10-23T16:38:27.638Z,78.10
2017-10-23T16:40:55.221Z,78.00
2017-10-23T16:43:22.774Z,77.50
2017-10-23T16:45:50.325Z,77.90
2017-10-23T16:48:17.897Z,78.00
2017-10-23T16:50:45.496Z,78.10
2017-10-23T16:53:14.589Z,78.60
2017-10-23T16:55:42.183Z,80.20
2017-10-23T16:58:09.759Z,80.60
2017-10-23T17:00:37.299Z,80.70
2017-10-23T17:03:05.643Z,81.10
2017-10-23T17:05:33.198Z,80.50
2017-10-23T17:08:00.730Z,80.70
2017-10-23T17:10:28.276Z,80.80
2017-10-23T17:12:55.795Z,80.20
2017-10-23T17:15:23.315Z,80.90
2017-10-23T17:17:50.922Z,80.50
2017-10-23T17:20:18.874Z,81.00
2017-10-23T17:22:46.408Z,81.70
2017-10-23T17:25:15.539Z,81.40
2017-10-23T17:27:43.076Z,81.10
2017-10-23T17:30:10.604Z,80.60
2017-10-23T17:32:38.156Z,80.90
2017-10-23T17:35:05.696Z,81.10
2017-10-23T17:37:33.238Z,81.10
2017-10-23T17:40:01.088Z,81.30
2017-10-23T17:42:28.624Z,81.40
2017-10-23T17:44:56.355Z,81.30
2017-10-23T17:47:24.688Z,82.10
2017-10-23T17:49:52.232Z,82.00
2017-10-23T17:52:19.796Z,82.00
2017-10-23T17:54:47.364Z,82.30
2017-10-23T17:57:16.315Z,83.00
2017-10-23T17:59:43.850Z,82.90
2017-10-23T18:02:12.208Z,83.30
2017-10-23T18:04:39.740Z,83.30
2017-10-23T18:07:07.267Z,84.40
2017-10-23T18:09:34.838Z,84.80
2017-10-23T18:12:02.385Z,84.80
2017-10-23T18:14:30.380Z,85.80
2017-10-23T18:16:58.714Z,85.40
2017-10-23T18:19:26.239Z,85.30
2017-10-23T18:21:53.769Z,85.80
2017-10-23T18:24:21.368Z,85.80
2017-10-23T18:26:48.904Z,85.30
2017-10-23T18:29:16.583Z,84.70
2017-10-23T18:31:44.140Z,85.30
2017-10-23T18:34:11.667Z,85.50
2017-10-23T18:36:39.201Z,85.70
2017-10-23T18:39:07.519Z,85.00
2017-10-23T18:41:35.692Z,85.00
2017-10-23T18:44:03.276Z,84.80
2017-10-23T18:46:31.042Z,85.00
2017-10-23T18:48:58.624Z,84.60
2017-10-23T18:51:26.927Z,84.40
2017-10-23T18:53:55.251Z,84.40
2017-10-23T18:56:23.606Z,84.40
2017-10-23T18:58:52.100Z,83.90
2017-10-23T19:01:19.666Z,83.90
2017-10-23T19:03:47.207Z,83.70
2017-10-23T19:06:16.396Z,84.10
2017-10-23T19:08:44.019Z,84.00
2017-10-23T19:11:11.548Z,83.60
2017-10-23T19:13:39.080Z,82.90
2017-10-23T19:19:04.500Z,83.00
2017-10-23T19:21:36.061Z,82.20
2017-10-23T19:27:22.305Z,82.80
2017-10-23T19:33:15.169Z,82.30
2017-10-23T19:35:42.973Z,82.40
2017-10-23T19:38:11.224Z,83.00
2017-10-23T19:40:38.880Z,83.40
2017-10-23T19:43:07.169Z,83.20
2017-10-23T19:45:34.740Z,83.30
2017-10-23T19:48:02.644Z,82.50
2017-10-23T19:50:30.266Z,82.80
2017-10-23T19:52:57.820Z,82.60
2017-10-23T19:55:25.406Z,83.00
2017-10-23T19:57:52.944Z,83.00
2017-10-23T20:00:20.467Z,82.30
2017-10-23T20:02:48.050Z,83.10
2017-10-23T20:05:16.424Z,82.90
2017-10-23T20:07:43.955Z,83.00
2017-10-23T20:10:11.548Z,83.10
2017-10-23T20:12:39.148Z,83.70
2017-10-23T20:15:07.574Z,82.90
2017-10-23T20:17:35.156Z,82.80
2017-10-23T20:20:02.783Z,83.40
2017-10-23T20:22:30.422Z,83.80
2017-10-23T20:24:58.008Z,83.40
2017-10-23T20:27:25.569Z,83.70
2017-10-23T20:29:53.124Z,83.80
2017-10-23T20:32:20.732Z,84.10
2017-10-23T20:34:48.286Z,83.80
2017-10-23T20:37:16.384Z,83.50
2017-10-23T20:39:43.948Z,83.90
2017-10-23T20:42:12.246Z,83.20
2017-10-23T20:44:40.020Z,83.10
2017-10-23T20:47:07.595Z,83.50
2017-10-23T20:49:35.137Z,83.30
2017-10-23T20:52:02.680Z,83.10
2017-10-23T20:54:30.259Z,83.10
2017-10-23T20:56:57.794Z,82.90
2017-10-23T20:59:25.324Z,82.90
2017-10-23T21:01:52.876Z,83.00
2017-10-23T21:04:20.416Z,83.00
2017-10-23T21:06:47.952Z,82.80
2017-10-23T21:09:15.629Z,82.80
2017-10-23T21:11:43.517Z,82.80
2017-10-23T21:14:11.052Z,82.60
2017-10-23T21:16:38.627Z,82.80
2017-10-23T21:19:06.168Z,82.70
2017-10-23T21:21:33.700Z,83.00
2017-10-23T21:24:01.255Z,82.70
2017-10-23T21:26:29.551Z,82.70
2017-10-23T21:28:57.092Z,82.70
2017-10-23T21:31:25.420Z,83.00
2017-10-23T21:33:52.956Z,82.90
2017-10-23T21:36:20.483Z,82.40
2017-10-23T21:38:48.064Z,82.00
2017-10-23T21:41:16.387Z,82.30
2017-10-23T21:43:43.967Z,82.10
2017-10-23T21:46:11.679Z,82.20
2017-10-23T21:48:39.220Z,81.80
2017-10-23T21:51:07.520Z,82.00
2017-10-23T21:53:35.092Z,81.90
2017-10-23T21:56:02.620Z,81.90
2017-10-23T21:58:30.151Z,81.80
2017-10-23T22:00:57.739Z,81.80
2017-10-23T22:03:26.035Z,82.20
2017-10-23T22:05:53.564Z,82.20
2017-10-23T22:08:21.885Z,82.20
2017-10-23T22:10:49.423Z,82.20
2017-10-23T22:13:16.963Z,82.10
2017-10-23T22:15:45.320Z,82.20
2017-10-23T22:18:13.780Z,82.20
2017-10-23T22:20:41.320Z,82.20
2017-10-23T22:23:08.920Z,82.10
2017-10-23T22:25:36.503Z,82.40
2017-10-23T22:28:04.800Z,82.20
2017-10-23T22:30:32.360Z,82.10
2017-10-23T22:32:59.895Z,82.10
2017-10-23T22:35:28.194Z,81.80
2017-10-23T22:37:55.747Z,81.80
2017-10-23T22:40:24.050Z,81.80
2017-10-23T22:42:51.576Z,81.70
2017-10-23T22:45:19.967Z,81.90
2017-10-23T22:47:47.495Z,81.90
2017-10-23T22:50:16.488Z,82.00
2017-10-23T22:52:44.052Z,81.70
2017-10-23T22:55:11.579Z,81.60
2017-10-23T22:57:39.260Z,81.90
2017-10-23T23:00:06.824Z,81.50
2017-10-23T23:02:34.351Z,81.50
2017-10-23T23:05:01.923Z,81.20
2017-10-23T23:07:29.508Z,81.40
2017-10-23T23:09:57.044Z,81.40
2017-10-23T23:12:24.575Z,81.70
2017-10-23T23:14:52.143Z,81.70
2017-10-23T23:17:19.679Z,81.20
2017-10-23T23:19:47.974Z,81.00
2017-10-23T23:22:15.645Z,81.00
2017-10-23T23:24:43.214Z,81.10
2017-10-23T23:27:10.767Z,81.10
2017-10-23T23:29:38.369Z,81.40
2017-10-23T23:32:05.904Z,81.30
2017-10-23T23:34:33.435Z,81.40
2017-10-23T23:37:01.001Z,81.40
2017-10-23T23:39:28.537Z,81.40
2017-10-23T23:41:56.063Z,81.30
2017-10-23T23:44:23.624Z,81.40
2017-10-23T23:46:51.192Z,81.30
2017-10-23T23:49:18.977Z,81.00
2017-10-23T23:51:46.575Z,81.50
2017-10-23T23:54:24.475Z,81.30
